createdAt,value
2022-09-20T00:01:34.357Z,69.19
2022-09-20T00:04:06.182Z,69.42
2022-09-20T00:06:34.768Z,69.63
2022-09-20T00:09:04.071Z,70.03
2022-09-20T00:11:34.411Z,70.03
2022-09-20T00:14:03.553Z,70.34
2022-09-20T00:16:34.097Z,70.39
2022-09-20T00:19:05.226Z,70.74
2022-09-20T00:21:35.929Z,70.93
2022-09-20T00:24:04.113Z,70.75
2022-09-20T00:26:31.901Z,70.56
2022-09-20T00:29:02.517Z,70.91
2022-09-20T00:31:30.183Z,70.93
2022-09-20T00:34:17.981Z,70.76
2022-09-20T00:36:46.106Z,70.77
2022-09-20T00:39:15.974Z,71.00
2022-09-20T00:41:43.936Z,70.94
2022-09-20T00:44:49.024Z,71.06
2022-09-20T00:47:41.913Z,71.69
2022-09-20T00:50:29.799Z,71.54
2022-09-20T00:53:04.880Z,71.16
2022-09-20T00:55:34.465Z,71.74
2022-09-20T00:58:02.829Z,71.72
2022-09-20T01:00:30.723Z,71.52
2022-09-20T01:03:02.425Z,71.92
2022-09-20T01:05:30.320Z,72.10
2022-09-20T01:07:58.616Z,71.92
2022-09-20T01:10:26.601Z,72.24
2022-09-20T01:12:55.303Z,72.25
2022-09-20T01:15:24.502Z,72.26
2022-09-20T01:17:54.259Z,72.34
2022-09-20T01:20:24.130Z,72.35
2022-09-20T01:23:29.497Z,72.54
2022-09-20T01:26:27.840Z,72.45
2022-09-20T01:29:08.206Z,72.76
2022-09-20T01:31:42.746Z,72.72
2022-09-20T01:34:18.986Z,72.85
2022-09-20T01:37:12.894Z,72.90
2022-09-20T01:39:55.691Z,73.08
2022-09-20T01:42:32.867Z,72.77
2022-09-20T01:45:07.003Z,73.09
2022-09-20T01:48:10.490Z,73.44
2022-09-20T01:51:03.593Z,73.69
2022-09-20T01:53:37.084Z,73.86
2022-09-20T01:56:07.733Z,73.89
2022-09-20T01:59:22.696Z,73.83
2022-09-20T02:02:09.133Z,74.32
2022-09-20T02:04:51.816Z,74.23
2022-09-20T02:07:46.450Z,74.69
2022-09-20T02:10:24.214Z,74.83
2022-09-20T02:13:00.227Z,75.31
2022-09-20T02:15:46.220Z,74.82
2022-09-20T02:18:46.267Z,75.45
2022-09-20T02:21:35.161Z,75.80
2022-09-20T02:24:37.684Z,75.10
2022-09-20T02:27:23.961Z,75.99
2022-09-20T02:30:16.525Z,75.34
2022-09-20T02:33:05.514Z,76.21
2022-09-20T02:35:43.222Z,75.75
2022-09-20T02:38:28.960Z,76.23
2022-09-20T02:41:21.292Z,76.36
2022-09-20T02:44:13.314Z,76.21
2022-09-20T02:47:01.306Z,75.99
2022-09-20T02:49:53.390Z,77.37
2022-09-20T02:53:06.169Z,77.69
2022-09-20T02:55:48.175Z,77.72
2022-09-20T02:58:21.750Z,77.71
2022-09-20T03:01:00.779Z,77.37
2022-09-20T03:03:56.257Z,77.29
2022-09-20T03:06:51.733Z,77.68
2022-09-20T03:09:29.285Z,77.80
2022-09-20T03:12:32.659Z,77.57
2022-09-20T03:15:18.570Z,77.94
2022-09-20T03:18:13.940Z,77.86
2022-09-20T03:21:01.394Z,77.77
2022-09-20T03:23:56.822Z,77.97
2022-09-20T03:26:38.519Z,78.59
2022-09-20T03:29:43.378Z,78.18
2022-09-20T03:32:17.898Z,78.41
2022-09-20T03:34:52.931Z,77.92
2022-09-20T03:37:36.308Z,77.95
2022-09-20T03:40:22.410Z,78.19
2022-09-20T03:42:53.653Z,78.21
2022-09-20T03:45:21.206Z,78.51
2022-09-20T03:48:00.921Z,78.49
2022-09-20T03:50:50.958Z,78.62
2022-09-20T03:53:34.985Z,78.88
2022-09-20T03:56:24.211Z,78.16
2022-09-20T03:59:01.557Z,79.13
2022-09-20T04:02:13.933Z,78.52
2022-09-20T04:05:00.023Z,78.84
2022-09-20T04:07:27.552Z,78.36
2022-09-20T04:10:14.820Z,78.16
2022-09-20T04:12:57.106Z,78.51
2022-09-20T04:15:37.365Z,78.41
2022-09-20T04:18:44.660Z,78.35
2022-09-20T04:21:24.826Z,78.63
2022-09-20T04:23:55.495Z,78.35
2022-09-20T04:26:48.427Z,78.67
2022-09-20T04:29:41.859Z,78.69
2022-09-20T04:32:25.532Z,79.30
2022-09-20T04:35:22.591Z,78.90
2022-09-20T04:37:51.979Z,78.76
2022-09-20T04:40:45.549Z,78.99
2022-09-20T04:43:28.068Z,79.10
2022-09-20T04:46:41.148Z,78.93
2022-09-20T04:49:36.434Z,78.71
2022-09-20T04:52:05.238Z,78.73
2022-09-20T04:54:35.960Z,78.50
2022-09-20T04:57:09.626Z,78.47
2022-09-20T05:00:05.293Z,78.12
2022-09-20T05:02:54.367Z,78.34
2022-09-20T05:05:45.503Z,78.42
2022-09-20T05:08:49.996Z,78.60
2022-09-20T05:11:35.582Z,78.47
2022-09-20T05:14:25.241Z,78.54
2022-09-20T05:17:17.128Z,78.39
2022-09-20T05:20:06.543Z,78.10
2022-09-20T05:22:43.193Z,77.85
2022-09-20T05:25:39.453Z,77.76
2022-09-20T05:28:44.997Z,78.26
2022-09-20T05:31:16.169Z,78.34
2022-09-20T05:34:03.029Z,77.89
2022-09-20T05:36:57.137Z,77.40
2022-09-20T05:39:50.877Z,77.62
2022-09-20T05:42:25.148Z,77.70
2022-09-20T05:44:59.250Z,77.84
2022-09-20T05:47:47.744Z,78.01
2022-09-20T05:50:39.114Z,77.81
2022-09-20T05:53:27.120Z,77.65
2022-09-20T05:56:19.271Z,77.66
2022-09-20T05:59:31.280Z,77.64
2022-09-20T06:02:01.551Z,77.82
2022-09-20T06:04:38.992Z,77.84
2022-09-20T06:07:33.635Z,77.73
2022-09-20T06:10:25.722Z,78.08
2022-09-20T06:13:25.436Z,78.08
2022-09-20T06:16:00.062Z,78.34
2022-09-20T06:18:27.987Z,78.36
2022-09-20T06:21:24.719Z,78.34
2022-09-20T06:23:58.252Z,79.09
2022-09-20T06:26:30.567Z,78.75
2022-09-20T06:29:04.155Z,78.87
2022-09-20T06:31:31.909Z,79.25
2022-09-20T06:34:04.673Z,79.15
2022-09-20T06:36:53.681Z,79.15
2022-09-20T06:40:04.933Z,79.45
2022-09-20T06:42:32.637Z,80.69
2022-09-20T06:45:00.221Z,79.97
2022-09-20T06:47:28.123Z,80.11
2022-09-20T06:49:56.612Z,80.36
2022-09-20T06:52:24.298Z,80.19
2022-09-20T06:54:54.987Z,80.51
2022-09-20T06:57:35.866Z,81.12
2022-09-20T07:00:03.645Z,81.38
2022-09-20T07:02:31.246Z,80.70
2022-09-20T07:05:00.377Z,80.54
2022-09-20T07:07:28.121Z,80.36
2022-09-20T07:09:55.766Z,80.15
2022-09-20T07:12:23.394Z,80.06
2022-09-20T07:14:51.670Z,80.27
2022-09-20T07:17:19.253Z,80.16
2022-09-20T07:19:46.913Z,80.15
2022-09-20T07:22:15.604Z,80.52
2022-09-20T07:24:43.275Z,80.85
2022-09-20T07:27:12.910Z,82.21
2022-09-20T07:29:42.189Z,81.33
2022-09-20T07:32:09.886Z,81.67
2022-09-20T07:34:37.482Z,81.39
2022-09-20T07:37:05.216Z,81.28
2022-09-20T07:39:32.899Z,81.17
2022-09-20T07:42:00.517Z,81.66
2022-09-20T07:44:29.058Z,81.08
2022-09-20T07:47:01.954Z,81.17
2022-09-20T07:49:33.498Z,81.26
2022-09-20T07:52:01.111Z,81.41
2022-09-20T07:54:29.337Z,81.25
2022-09-20T07:56:57.406Z,80.76
2022-09-20T07:59:25.472Z,80.12
2022-09-20T08:01:53.180Z,79.46
2022-09-20T08:04:20.873Z,78.96
2022-09-20T08:06:48.522Z,79.03
2022-09-20T08:09:16.342Z,78.80
2022-09-20T08:11:44.833Z,77.88
2022-09-20T08:14:17.071Z,77.75
2022-09-20T08:16:48.273Z,77.47
2022-09-20T08:19:24.179Z,75.39
2022-09-20T08:21:55.047Z,74.85
2022-09-20T08:24:22.962Z,75.30
2022-09-20T08:26:50.574Z,75.27
2022-09-20T08:29:18.927Z,73.37
2022-09-20T08:31:47.533Z,72.52
2022-09-20T08:34:18.083Z,73.30
2022-09-20T08:36:48.087Z,73.08
2022-09-20T08:42:21.090Z,72.65
2022-09-20T08:45:01.166Z,72.08
2022-09-20T08:47:45.682Z,72.10
2022-09-20T08:50:18.140Z,71.08
2022-09-20T08:52:49.559Z,71.08
2022-09-20T08:55:37.068Z,70.69
2022-09-20T08:58:08.750Z,70.58
2022-09-20T09:00:38.240Z,70.67
2022-09-20T09:03:11.869Z,70.39
2022-09-20T09:05:47.025Z,69.23
2022-09-20T09:08:28.311Z,68.38
2022-09-20T09:10:59.508Z,68.68
2022-09-20T09:13:54.322Z,67.91
2022-09-20T09:16:31.825Z,65.78
2022-09-20T09:19:33.948Z,67.06
2022-09-20T09:22:04.437Z,65.38
2022-09-20T09:24:32.609Z,65.40
2022-09-20T09:27:17.420Z,65.43
2022-09-20T09:29:55.513Z,65.32
2022-09-20T09:32:29.584Z,64.67
2022-09-20T09:34:58.442Z,63.70
2022-09-20T09:37:30.117Z,63.67
2022-09-20T09:40:27.627Z,62.91
2022-09-20T09:43:01.578Z,60.27
2022-09-20T09:45:39.520Z,61.92
2022-09-20T09:48:28.587Z,61.88
2022-09-20T09:51:12.709Z,60.79
2022-09-20T09:53:40.844Z,61.28
2022-09-20T09:56:14.433Z,61.57
2022-09-20T09:58:51.107Z,61.10
2022-09-20T10:01:33.551Z,61.50
2022-09-20T10:04:24.018Z,60.65
2022-09-20T10:07:06.179Z,59.45
2022-09-20T10:10:10.638Z,59.47
2022-09-20T10:13:05.248Z,60.11
2022-09-20T10:15:35.918Z,59.04
2022-09-20T10:18:25.263Z,59.58
2022-09-20T10:21:45.145Z,59.60
2022-09-20T10:24:32.090Z,59.20
2022-09-20T10:27:27.514Z,59.21
2022-09-20T10:30:18.469Z,57.64
2022-09-20T10:33:16.067Z,58.50
2022-09-20T10:36:08.936Z,57.14
2022-09-20T10:38:36.475Z,56.87
2022-09-20T10:41:41.609Z,57.34
2022-09-20T10:44:19.399Z,56.05
2022-09-20T10:47:14.985Z,56.43
2022-09-20T10:50:06.182Z,56.63
2022-09-20T10:52:50.365Z,56.59
2022-09-20T10:55:42.858Z,56.41
2022-09-20T10:58:29.037Z,56.05
2022-09-20T11:00:56.640Z,56.51
2022-09-20T11:03:38.175Z,55.99
2022-09-20T11:06:23.217Z,55.49
2022-09-20T11:08:56.840Z,55.92
2022-09-20T11:11:36.869Z,56.26
2022-09-20T11:14:12.252Z,56.00
2022-09-20T11:16:55.139Z,55.89
2022-09-20T11:19:32.428Z,56.33
2022-09-20T11:22:03.189Z,56.15
2022-09-20T11:24:39.327Z,56.73
2022-09-20T11:27:15.298Z,56.39
2022-09-20T11:29:51.735Z,56.37
2022-09-20T11:32:26.142Z,56.39
2022-09-20T11:35:03.009Z,56.08
2022-09-20T11:37:45.757Z,54.92
2022-09-20T11:40:26.178Z,55.19
2022-09-20T11:42:55.978Z,54.92
2022-09-20T11:45:28.345Z,55.08
2022-09-20T11:48:03.776Z,54.88
2022-09-20T11:51:13.813Z,54.74
2022-09-20T11:54:17.196Z,54.52
2022-09-20T11:56:57.613Z,54.31
2022-09-20T11:59:57.537Z,53.91
2022-09-20T12:02:36.489Z,53.57
2022-09-20T12:05:08.885Z,53.36
2022-09-20T12:07:40.875Z,53.69
2022-09-20T12:10:21.501Z,53.42
2022-09-20T12:12:55.924Z,52.99
2022-09-20T12:15:42.130Z,53.26
2022-09-20T12:18:34.926Z,52.98
2022-09-20T12:21:17.612Z,53.18
2022-09-20T12:23:58.264Z,52.80
2022-09-20T12:26:28.799Z,52.64
2022-09-20T12:28:59.896Z,52.59
2022-09-20T12:31:30.181Z,52.54
2022-09-20T12:34:00.271Z,52.05
2022-09-20T12:36:35.325Z,51.18
2022-09-20T12:39:07.795Z,51.76
2022-09-20T12:41:58.881Z,52.31
2022-09-20T12:44:32.681Z,52.15
2022-09-20T12:47:11.440Z,52.43
2022-09-20T12:50:07.056Z,52.59
2022-09-20T12:52:56.942Z,52.87
2022-09-20T12:55:31.091Z,52.30
2022-09-20T12:58:07.723Z,52.55
2022-09-20T13:00:49.024Z,52.03
2022-09-20T13:03:16.576Z,51.94
2022-09-20T13:05:49.279Z,51.96
2022-09-20T13:08:21.774Z,51.74
2022-09-20T13:10:59.233Z,51.74
2022-09-20T13:13:33.370Z,51.76
2022-09-20T13:16:03.108Z,51.68
2022-09-20T13:18:31.337Z,51.57
2022-09-20T13:21:07.452Z,51.66
2022-09-20T13:23:46.665Z,51.22
2022-09-20T13:26:16.585Z,50.58
2022-09-20T13:28:50.747Z,51.21
2022-09-20T13:31:21.357Z,50.89
2022-09-20T13:33:49.677Z,50.96
2022-09-20T13:36:29.307Z,50.35
2022-09-20T13:38:59.061Z,50.06
2022-09-20T13:41:30.318Z,49.95
2022-09-20T13:43:58.521Z,49.49
2022-09-20T13:46:35.304Z,49.54
2022-09-20T13:49:12.399Z,48.86
2022-09-20T13:51:40.096Z,48.83
2022-09-20T13:54:31.129Z,49.51
2022-09-20T13:57:04.438Z,48.15
2022-09-20T13:59:41.717Z,48.51
2022-09-20T14:02:30.686Z,48.25
2022-09-20T14:05:01.546Z,47.37
2022-09-20T14:07:30.703Z,48.59
2022-09-20T14:09:59.960Z,48.65
2022-09-20T14:12:28.534Z,48.63
2022-09-20T14:14:56.942Z,48.74
2022-09-20T14:17:25.830Z,48.73
2022-09-20T14:19:55.769Z,48.93
2022-09-20T14:22:30.673Z,48.75
2022-09-20T14:25:22.577Z,48.61
2022-09-20T14:28:05.003Z,49.33
2022-09-20T14:30:37.540Z,49.19
2022-09-20T14:33:08.337Z,49.17
2022-09-20T14:35:36.094Z,48.72
2022-09-20T14:38:09.643Z,48.33
2022-09-20T14:40:47.087Z,47.84
2022-09-20T14:43:27.070Z,48.15
2022-09-20T14:45:58.316Z,48.06
2022-09-20T14:48:25.948Z,48.75
2022-09-20T14:51:28.740Z,49.01
2022-09-20T14:54:05.354Z,48.17
2022-09-20T14:56:38.893Z,48.55
2022-09-20T14:59:10.396Z,49.29
2022-09-20T15:01:42.415Z,49.23
2022-09-20T15:04:18.788Z,49.29
2022-09-20T15:06:46.506Z,49.44
2022-09-20T15:09:14.675Z,49.55
2022-09-20T15:11:42.428Z,49.52
2022-09-20T15:14:10.056Z,49.47
2022-09-20T15:16:37.979Z,49.55
2022-09-20T15:19:07.136Z,49.64
2022-09-20T15:21:34.881Z,49.80
2022-09-20T15:24:02.745Z,50.01
2022-09-20T15:26:32.578Z,49.96
2022-09-20T15:29:01.183Z,49.96
2022-09-20T15:31:29.869Z,50.23
2022-09-20T15:33:57.508Z,50.54
2022-09-20T15:36:25.096Z,50.54
2022-09-20T15:38:54.922Z,50.51
2022-09-20T15:41:22.604Z,50.30
2022-09-20T15:43:51.378Z,50.37
2022-09-20T15:46:23.980Z,50.32
2022-09-20T15:48:51.664Z,50.19
2022-09-20T15:51:19.262Z,50.03
2022-09-20T15:53:50.534Z,49.68
2022-09-20T15:56:23.603Z,49.42
2022-09-20T15:58:53.380Z,48.88
2022-09-20T16:01:21.074Z,49.10
2022-09-20T16:03:50.098Z,49.09
2022-09-20T16:06:17.908Z,49.11
2022-09-20T16:08:45.658Z,48.89
2022-09-20T16:11:22.415Z,48.51
2022-09-20T16:13:55.281Z,48.32
2022-09-20T16:16:23.494Z,48.09
2022-09-20T16:19:10.081Z,48.15
2022-09-20T16:21:40.598Z,48.06
2022-09-20T16:24:09.226Z,48.16
2022-09-20T16:26:37.684Z,48.10
2022-09-20T16:29:06.160Z,47.98
2022-09-20T16:31:43.001Z,47.99
2022-09-20T16:34:22.612Z,47.94
2022-09-20T16:36:52.559Z,47.22
2022-09-20T16:39:21.774Z,47.61
2022-09-20T16:41:49.954Z,47.44
2022-09-20T16:44:17.643Z,47.47
2022-09-20T16:46:46.340Z,47.96
2022-09-20T16:49:14.617Z,48.14
2022-09-20T16:51:43.990Z,48.58
2022-09-20T16:54:14.343Z,48.79
2022-09-20T16:56:47.470Z,49.23
2022-09-20T16:59:16.997Z,49.75
2022-09-20T17:01:45.851Z,49.55
2022-09-20T17:04:15.352Z,48.94
2022-09-20T17:06:44.514Z,48.70
2022-09-20T17:09:13.315Z,48.81
2022-09-20T17:11:47.037Z,48.73
2022-09-20T17:14:16.033Z,48.66
2022-09-20T17:16:44.701Z,48.95
2022-09-20T17:19:14.277Z,49.16
2022-09-20T17:21:44.842Z,49.43
2022-09-20T17:24:13.208Z,49.74
2022-09-20T17:26:43.087Z,50.18
2022-09-20T17:29:11.911Z,50.71
2022-09-20T17:31:43.119Z,50.89
2022-09-20T17:34:12.728Z,50.81
2022-09-20T17:36:43.442Z,50.69
2022-09-20T17:39:13.346Z,50.78
2022-09-20T17:41:42.869Z,50.67
2022-09-20T17:44:11.207Z,50.68
2022-09-20T17:46:41.117Z,50.83
2022-09-20T17:49:11.320Z,51.10
2022-09-20T17:51:41.233Z,51.16
2022-09-20T17:54:09.599Z,51.15
2022-09-20T17:56:37.384Z,51.26
2022-09-20T17:59:06.754Z,51.32
2022-09-20T18:01:36.485Z,51.50
2022-09-20T18:04:05.700Z,51.69
2022-09-20T18:06:43.293Z,51.84
2022-09-20T18:09:13.102Z,51.88
2022-09-20T18:11:50.516Z,52.11
2022-09-20T18:14:21.610Z,52.61
2022-09-20T18:16:49.224Z,52.76
2022-09-20T18:19:17.715Z,52.90
2022-09-20T18:21:45.348Z,53.24
2022-09-20T18:24:13.194Z,53.49
2022-09-20T18:26:41.483Z,53.69
2022-09-20T18:29:14.387Z,53.73
2022-09-20T18:31:47.770Z,53.78
2022-09-20T18:34:18.919Z,53.94
2022-09-20T18:36:53.934Z,54.04
2022-09-20T18:39:23.181Z,54.00
2022-09-20T18:41:51.813Z,54.05
2022-09-20T18:44:20.212Z,54.12
2022-09-20T18:46:48.268Z,54.81
2022-09-20T18:49:17.876Z,55.27
2022-09-20T18:51:46.614Z,55.64
2022-09-20T18:54:14.298Z,56.05
2022-09-20T18:56:43.897Z,56.49
2022-09-20T18:59:23.586Z,56.98
2022-09-20T19:02:06.949Z,57.80
2022-09-20T19:05:07.890Z,58.20
2022-09-20T19:07:40.889Z,58.61
2022-09-20T19:10:08.468Z,58.72
2022-09-20T19:12:58.138Z,58.70
2022-09-20T19:15:44.511Z,59.56
2022-09-20T19:18:39.957Z,59.68
2022-09-20T19:21:19.407Z,60.12
2022-09-20T19:23:53.043Z,60.14
2022-09-20T19:26:22.964Z,60.33
2022-09-20T19:28:56.349Z,60.24
2022-09-20T19:31:30.330Z,60.72
2022-09-20T19:34:00.502Z,61.16
2022-09-20T19:36:46.029Z,60.98
2022-09-20T19:39:40.889Z,61.10
2022-09-20T19:42:25.663Z,61.09
2022-09-20T19:45:20.177Z,60.84
2022-09-20T19:48:17.826Z,60.89
2022-09-20T19:50:49.642Z,61.02
2022-09-20T19:53:19.715Z,60.61
2022-09-20T19:55:51.154Z,60.60
2022-09-20T19:58:19.172Z,61.09
2022-09-20T20:00:48.468Z,61.56
2022-09-20T20:03:17.028Z,62.21
2022-09-20T20:05:58.328Z,62.44
2022-09-20T20:08:38.656Z,63.18
2022-09-20T20:11:24.718Z,63.83
2022-09-20T20:14:31.892Z,63.39
2022-09-20T20:17:34.478Z,64.29
2022-09-20T20:20:27.536Z,64.37
2022-09-20T20:23:20.686Z,63.72
2022-09-20T20:25:48.575Z,63.99
2022-09-20T20:28:16.287Z,62.95
2022-09-20T20:30:44.141Z,62.52
2022-09-20T20:33:16.556Z,62.36
2022-09-20T20:35:44.171Z,62.97
2022-09-20T20:38:12.840Z,62.98
2022-09-20T20:40:42.639Z,62.71
2022-09-20T20:43:10.827Z,62.47
2022-09-20T20:45:39.836Z,62.33
2022-09-20T20:48:07.672Z,62.23
2022-09-20T20:50:36.457Z,62.15
2022-09-20T20:53:04.173Z,62.14
2022-09-20T20:55:32.370Z,62.12
2022-09-20T20:58:00.737Z,62.08
2022-09-20T21:00:29.052Z,62.21
2022-09-20T21:03:02.487Z,62.54
2022-09-20T21:05:30.658Z,63.63
2022-09-20T21:07:59.643Z,63.45
2022-09-20T21:10:27.278Z,63.43
2022-09-20T21:12:55.577Z,63.46
2022-09-20T21:15:23.328Z,63.92
2022-09-20T21:17:52.577Z,63.86
2022-09-20T21:20:21.260Z,64.31
2022-09-20T21:22:48.934Z,64.14
2022-09-20T21:25:16.657Z,64.16
2022-09-20T21:27:44.269Z,64.09
2022-09-20T21:30:12.917Z,64.02
2022-09-20T21:32:40.565Z,63.77
2022-09-20T21:35:08.549Z,63.67
2022-09-20T21:37:36.258Z,63.60
2022-09-20T21:40:03.988Z,63.56
2022-09-20T21:42:31.612Z,63.59
2022-09-20T21:44:59.293Z,63.56
2022-09-20T21:47:27.260Z,63.58
2022-09-20T21:49:54.927Z,63.47
2022-09-20T21:52:22.702Z,63.36
2022-09-20T21:54:50.774Z,63.45
2022-09-20T21:57:18.949Z,63.21
2022-09-20T21:59:46.566Z,63.03
2022-09-20T22:02:14.276Z,62.87
2022-09-20T22:04:41.869Z,62.64
2022-09-20T22:07:10.197Z,62.41
2022-09-20T22:09:37.845Z,62.31
2022-09-20T22:12:05.545Z,62.13
2022-09-20T22:14:33.219Z,62.08
2022-09-20T22:17:01.356Z,62.12
2022-09-20T22:19:29.062Z,62.03
2022-09-20T22:21:56.722Z,61.95
2022-09-20T22:24:24.947Z,61.83
2022-09-20T22:26:52.774Z,61.82
2022-09-20T22:29:21.102Z,61.71
2022-09-20T22:31:51.098Z,61.81
2022-09-20T22:34:21.221Z,61.93
2022-09-20T22:36:49.152Z,61.95
2022-09-20T22:39:17.412Z,61.92
2022-09-20T22:41:45.624Z,62.07
2022-09-20T22:44:13.242Z,61.94
2022-09-20T22:46:41.134Z,61.66
2022-09-20T22:49:10.319Z,61.51
2022-09-20T22:51:38.655Z,61.44
2022-09-20T22:54:08.649Z,61.41
2022-09-20T22:56:37.388Z,61.24
2022-09-20T22:59:07.681Z,60.99
2022-09-20T23:01:42.564Z,60.76
2022-09-20T23:04:15.839Z,60.66
2022-09-20T23:06:48.138Z,60.90
2022-09-20T23:09:18.859Z,60.71
2022-09-20T23:11:47.271Z,60.79
2022-09-20T23:14:20.034Z,60.67
2022-09-20T23:16:48.597Z,60.67
2022-09-20T23:19:16.403Z,60.81
2022-09-20T23:21:45.076Z,61.03
2022-09-20T23:24:14.962Z,61.01
2022-09-20T23:26:44.033Z,61.12
2022-09-20T23:29:16.912Z,61.27
2022-09-20T23:31:47.103Z,61.68
2022-09-20T23:34:16.147Z,61.37
2022-09-20T23:36:44.685Z,61.21
2022-09-20T23:39:13.337Z,61.15
2022-09-20T23:41:43.992Z,61.15
2022-09-20T23:44:14.994Z,61.32
2022-09-20T23:46:42.621Z,61.18
2022-09-20T23:49:10.453Z,61.33
2022-09-20T23:51:38.506Z,61.32
2022-09-20T23:54:06.731Z,61.16
2022-09-20T23:56:34.824Z,61.14
2022-09-20T23:59:02.494Z,61.30
